Ευχαριστούμε που συμβάλλετε στη διατήρηση της σελίδας μας.

Thank you for your donations, it really helps to maintain the page.


Meteo Stats And More









Fire Weather Index (FWI)

Kastelokampos Rion more information Kastelokampos Rion


Romanos Cam more information Romanos Cam


warning for Thunderstorms more information blitzortung!


Rain radar more information rain snow radar


Visit our other weather sites:

Meteopatras.Eu in
Euweather NetworkMeteopatras.Eu in Euweather Network

Weather CloudWeather Cloud

PWS WeatherPWS Weather

Awekas NetWeather data from station Patra-Ketx

WunderGroundWeather data from station Patra-Ketx



Thunderstorms From: 19-11-2019 16:00 Until: 20-11-2019 00:59 warning for: Thunderstorms Level: Yellow info button

Provided and Supervised by : Moulas Andreas

 Patra, Greece - Latitude : 38°14'21" N - Longitude : 21°45'5" E - Altitude : 56m

Select another period ( hide this area )

Units Period Custom range Directly to
Metric English Both
Daily Weekly Monthly Yearly
use both date-selectors for a custom range
previous Day
With this date

WeatherUnderground graphs for this period ( click here )


Warning: Division by zero in /storage/content/70/1007070/meteopatras.eu/public_html/weather/wu/WU-History4.php on line 835
Daily Summary for Tuesday 19 November 2019
Time Temp. ( °C ) Dew pt. ( °C ) Wind ( km/h ) from Gust ( km/h ) Pressure ( hPa ) Humid.( % ) Rainrate ( cm ) Solar ( W/m2 )
High15,1 12,3 3,2 ENE ( 37/99 ) 6,4 1020,0 85 - 0
Average14,7 11,8 1,2 Calm #39/82 3,9 1019,8 83 - NAN #0/82
Low14,4 11,2 -   0,0 1019,5 80 -  
Daily Tabular details for Tuesday 19 November 2019
Time Temp. ( °C ) Dew pt. ( °C ) Wind ( km/h ) from Gust ( km/h ) Pressure ( hPa ) Humid.( % ) Rainrate ( cm ) Solar ( W/m2 )
00:00 14,8 12,1 1,6 ENE 4,8 1019,6 84 - -
00:05 14,7 12,1   Calm 4,8 1019,7 84 - -
00:10 14,7 12,2   Calm 3,2 1019,7 85 - -
00:15 14,8 12,3   Calm   1019,6 85 - -
00:20 14,8 12,1   Calm 1,6 1019,5 84 - -
00:25 14,8 12,1   Calm 4,8 1019,5 84 - -
00:30 14,8 12,1   Calm 3,2 1019,5 84 - -
00:35 14,8 12,1 1,6 ENE 4,8 1019,5 84 - -
00:40 14,8 12,2 1,6 ENE 4,8 1019,5 84 - -
00:45 14,9 12,2   Calm 1,6 1019,6 84 - -
00:50 15,0 12,3   Calm   1019,7 84 - -
00:55 14,9 12,1 1,6 ENE 4,8 1019,7 83 - -
01:00 15,0 12,1   Calm 3,2 1019,8 83 - -
01:05 15,0 12,1   Calm 1,6 1019,9 83 - -
01:10 14,9 12,2   Calm 3,2 1019,9 84 - -
01:15 14,9 12,2 1,6 ENE 4,8 1019,9 84 - -
01:20 14,8 12,0 3,2 ENE 6,4 1019,8 83 - -
01:25 14,9 12,0   Calm 3,2 1019,9 83 - -
01:30 14,9 12,0   Calm 3,2 1020,0 83 - -
01:35 14,8 12,0 3,2 ENE 4,8 1020,0 83 - -
01:40 14,8 12,1   Calm 3,2 1020,0 84 - -
01:45 14,8 11,9 1,6 ENE 4,8 1019,9 83 - -
01:50 14,8 11,9 3,2 ENE 4,8 1019,8 83 - -
01:55 14,8 11,9   Calm 3,2 1019,9 83 - -
02:00 14,8 11,9   Calm 3,2 1020,0 83 - -
02:05 14,9 12,0   Calm 3,2 1020,0 83 - -
02:10 15,0 12,1 1,6 ENE 3,2 1020,0 83 - -
02:15 15,1 12,0   Calm 4,8 1019,9 82 - -
02:20 15,0 11,9 1,6 ENE 4,8 1019,9 82 - -
02:25 15,0 11,9   Calm   1019,8 82 - -
02:30 14,9 11,9   Calm   1019,9 82 - -
02:35 14,9 11,8   Calm 6,4 1019,8 82 - -
02:40 14,8 11,9   Calm   1019,9 83 - -
02:45 14,8 11,9   Calm   1019,9 83 - -
02:50 14,7 11,7 1,6 ENE 4,8 1019,9 82 - -
02:55 14,7 11,9   Calm 4,8 1020,0 83 - -
03:00 14,7 11,8   Calm 4,8 1019,9 83 - -
03:05 14,7 11,8   Calm   1020,0 83 - -
03:10 14,7 11,9   Calm   1020,0 83 - -
03:15 14,8 11,9 1,6 East 3,2 1020,0 83 - -
03:20 14,9 11,8 3,2 East 4,8 1019,9 82 - -
03:25 14,8 11,8 1,6 East 3,2 1019,9 82 - -
03:30 14,8 11,7 3,2 East 4,8 1019,9 82 - -
03:35 14,7 11,9   Calm 4,8 1019,8 83 - -
03:40 14,7 11,8   Calm   1019,9 83 - -
03:45 14,6 11,8 1,6 East 3,2 1019,9 83 - -
03:50 14,6 11,8 3,2 East 6,4 1019,9 83 - -
03:55 14,5 11,7   Calm 4,8 1019,8 83 - -
04:00 14,6 11,7 1,6 East 3,2 1019,8 83 - -
04:05 14,5 11,7 1,6 East 3,2 1019,8 83 - -
04:10 14,4 11,6 3,2 East 4,8 1019,8 83 - -
04:15 14,5 11,8 3,2 East 4,8 1019,7 84 - -
04:20 14,8 12,0 3,2 NE 6,4 1019,7 83 - -
04:25 15,1 11,9   Calm 4,8 1019,8 81 - -
04:30 15,1 11,8   Calm   1019,8 81 - -
04:35 14,9 11,7 1,6 NNE 3,2 1019,9 81 - -
04:40 14,7 11,6   Calm 3,2 1019,8 82 - -
04:45 14,5 11,7   Calm   1019,8 83 - -
04:50 14,4 11,6   Calm   1019,7 83 - -
04:55 14,4 11,6 1,6 NNE 4,8 1019,7 83 - -
05:00 14,4 11,6 1,6 NNE 4,8 1019,7 83 - -
05:05 14,4 11,6 3,2 NE 4,8 1019,7 83 - -
05:10 14,4 11,6 3,2 NE 6,4 1019,7 83 - -
05:15 14,6 11,7 1,6 NE 4,8 1019,7 83 - -
05:20 14,6 11,6 3,2 ENE 4,8 1019,7 82 - -
05:25 14,6 11,5 3,2 ENE 6,4 1019,6 82 - -
05:30 14,7 11,6 3,2 ENE 6,4 1019,8 82 - -
05:35 14,6 11,4 3,2 ESE 4,8 1019,7 81 - -
05:40 14,6 11,3   Calm 4,8 1019,7 81 - -
05:45 14,4 11,2 3,2 East 6,4 1019,8 81 - -
05:50 14,5 11,4   Calm 6,4 1019,8 82 - -
05:55 14,4 11,2 3,2 ENE 6,4 1019,8 81 - -
06:00 14,4 11,2 1,6 East 6,4 1019,7 81 - -
06:05 14,4 11,2 3,2 East 4,8 1019,8 81 - -
06:10 14,4 11,2 1,6 ESE 6,4 1019,8 81 - -
06:15 14,4 11,2 1,6 ESE 4,8 1019,8 81 - -
06:20 14,5 11,3 1,6 ESE 4,8 1019,8 81 - -
06:25 14,5 11,3 3,2 ESE 4,8 1019,8 81 - -
06:30 14,4 11,2   Calm 3,2 1019,8 81 - -
06:35 14,5 11,3 1,6 ESE 4,8 1019,9 81 - -
06:40 14,6 11,3 1,6 NE 6,4 1019,9 81 - -
06:45 14,6 11,2   Calm 4,8 1019,9 80 - -
Daily Summary for Tuesday 19 November 2019
Time Temp. ( °C ) Dew pt. ( °C ) Wind ( km/h ) from Gust ( km/h ) Pressure ( hPa ) Humid.( % ) Rainrate ( cm ) Solar ( W/m2 )
High15,1 12,3 3,2 ENE ( 37/99 ) 6,4 1020,0 85 - 0
Average14,7 11,8 1,2 Calm #39/82 3,9 1019,8 83 - NAN #0/82
Low14,4 11,2 -   0,0 1019,5 80 -  
Daily Tabular details for Tuesday 19 November 2019
Time Temp. ( °C ) Dew pt. ( °C ) Wind ( km/h ) from Gust ( km/h ) Pressure ( hPa ) Humid.( % ) Rainrate ( cm ) Solar ( W/m2 )
00:00 14,8 12,1 1,6 ENE 4,8 1019,6 84 - -
00:05 14,7 12,1   Calm 4,8 1019,7 84 - -
00:10 14,7 12,2   Calm 3,2 1019,7 85 - -
00:15 14,8 12,3   Calm   1019,6 85 - -
00:20 14,8 12,1   Calm 1,6 1019,5 84 - -
00:25 14,8 12,1   Calm 4,8 1019,5 84 - -
00:30 14,8 12,1   Calm 3,2 1019,5 84 - -
00:35 14,8 12,1 1,6 ENE 4,8 1019,5 84 - -
00:40 14,8 12,2 1,6 ENE 4,8 1019,5 84 - -
00:45 14,9 12,2   Calm 1,6 1019,6 84 - -
00:50 15,0 12,3   Calm   1019,7 84 - -
00:55 14,9 12,1 1,6 ENE 4,8 1019,7 83 - -
01:00 15,0 12,1   Calm 3,2 1019,8 83 - -
01:05 15,0 12,1   Calm 1,6 1019,9 83 - -
01:10 14,9 12,2   Calm 3,2 1019,9 84 - -
01:15 14,9 12,2 1,6 ENE 4,8 1019,9 84 - -
01:20 14,8 12,0 3,2 ENE 6,4 1019,8 83 - -
01:25 14,9 12,0   Calm 3,2 1019,9 83 - -
01:30 14,9 12,0   Calm 3,2 1020,0 83 - -
01:35 14,8 12,0 3,2 ENE 4,8 1020,0 83 - -
01:40 14,8 12,1   Calm 3,2 1020,0 84 - -
01:45 14,8 11,9 1,6 ENE 4,8 1019,9 83 - -
01:50 14,8 11,9 3,2 ENE 4,8 1019,8 83 - -
01:55 14,8 11,9   Calm 3,2 1019,9 83 - -
02:00 14,8 11,9   Calm 3,2 1020,0 83 - -
02:05 14,9 12,0   Calm 3,2 1020,0 83 - -
02:10 15,0 12,1 1,6 ENE 3,2 1020,0 83 - -
02:15 15,1 12,0   Calm 4,8 1019,9 82 - -
02:20 15,0 11,9 1,6 ENE 4,8 1019,9 82 - -
02:25 15,0 11,9   Calm   1019,8 82 - -
02:30 14,9 11,9   Calm   1019,9 82 - -
02:35 14,9 11,8   Calm 6,4 1019,8 82 - -
02:40 14,8 11,9   Calm   1019,9 83 - -
02:45 14,8 11,9   Calm   1019,9 83 - -
02:50 14,7 11,7 1,6 ENE 4,8 1019,9 82 - -
02:55 14,7 11,9   Calm 4,8 1020,0 83 - -
03:00 14,7 11,8   Calm 4,8 1019,9 83 - -
03:05 14,7 11,8   Calm   1020,0 83 - -
03:10 14,7 11,9   Calm   1020,0 83 - -
03:15 14,8 11,9 1,6 East 3,2 1020,0 83 - -
03:20 14,9 11,8 3,2 East 4,8 1019,9 82 - -
03:25 14,8 11,8 1,6 East 3,2 1019,9 82 - -
03:30 14,8 11,7 3,2 East 4,8 1019,9 82 - -
03:35 14,7 11,9   Calm 4,8 1019,8 83 - -
03:40 14,7 11,8   Calm   1019,9 83 - -
03:45 14,6 11,8 1,6 East 3,2 1019,9 83 - -
03:50 14,6 11,8 3,2 East 6,4 1019,9 83 - -
03:55 14,5 11,7   Calm 4,8 1019,8 83 - -
04:00 14,6 11,7 1,6 East 3,2 1019,8 83 - -
04:05 14,5 11,7 1,6 East 3,2 1019,8 83 - -
04:10 14,4 11,6 3,2 East 4,8 1019,8 83 - -
04:15 14,5 11,8 3,2 East 4,8 1019,7 84 - -
04:20 14,8 12,0 3,2 NE 6,4 1019,7 83 - -
04:25 15,1 11,9   Calm 4,8 1019,8 81 - -
04:30 15,1 11,8   Calm   1019,8 81 - -
04:35 14,9 11,7 1,6 NNE 3,2 1019,9 81 - -
04:40 14,7 11,6   Calm 3,2 1019,8 82 - -
04:45 14,5 11,7   Calm   1019,8 83 - -
04:50 14,4 11,6   Calm   1019,7 83 - -
04:55 14,4 11,6 1,6 NNE 4,8 1019,7 83 - -
05:00 14,4 11,6 1,6 NNE 4,8 1019,7 83 - -
05:05 14,4 11,6 3,2 NE 4,8 1019,7 83 - -
05:10 14,4 11,6 3,2 NE 6,4 1019,7 83 - -
05:15 14,6 11,7 1,6 NE 4,8 1019,7 83 - -
05:20 14,6 11,6 3,2 ENE 4,8 1019,7 82 - -
05:25 14,6 11,5 3,2 ENE 6,4 1019,6 82 - -
05:30 14,7 11,6 3,2 ENE 6,4 1019,8 82 - -
05:35 14,6 11,4 3,2 ESE 4,8 1019,7 81 - -
05:40 14,6 11,3   Calm 4,8 1019,7 81 - -
05:45 14,4 11,2 3,2 East 6,4 1019,8 81 - -
05:50 14,5 11,4   Calm 6,4 1019,8 82 - -
05:55 14,4 11,2 3,2 ENE 6,4 1019,8 81 - -
06:00 14,4 11,2 1,6 East 6,4 1019,7 81 - -
06:05 14,4 11,2 3,2 East 4,8 1019,8 81 - -
06:10 14,4 11,2 1,6 ESE 6,4 1019,8 81 - -
06:15 14,4 11,2 1,6 ESE 4,8 1019,8 81 - -
06:20 14,5 11,3 1,6 ESE 4,8 1019,8 81 - -
06:25 14,5 11,3 3,2 ESE 4,8 1019,8 81 - -
06:30 14,4 11,2   Calm 3,2 1019,8 81 - -
06:35 14,5 11,3 1,6 ESE 4,8 1019,9 81 - -
06:40 14,6 11,3 1,6 NE 6,4 1019,9 81 - -
06:45 14,6 11,2   Calm 4,8 1019,9 80 - -

Download your copy of this data-set  here

Our weather-data as stored at Weather Underground. Script developed by Jim McMurry. Adapted for the template by Leuven-Template.eu

You find our weather info also at:

European Weather Network

WeatherCloud

Weather Underground

Hellas Meteo Network

AWEKAS

HAMweather, WeatherForYou, PWS Weather

MeteoPatras.Eu